Time;durP1;ratioP1;P1;durP2;ratioP2;P2;SDS_P1;SDS_P2;PMS_P1;PMS_P2;Temp;Humidity;BMP_temperature;BMP_pressure;BME280_temperature;BME280_humidity;BME280_pressure;Samples;Min_cycle;Max_cycle;Signal;HPM_P1;HPM_P2
2021/01/10 00:02:12;;;;;;;19.33;13.27;;;;;;;-1.61;66.92;95699.03;5045083;28;20099;-72
2021/01/10 00:04:37;;;;;;;20.95;13.30;;;;;;;-1.72;66.87;95676.25;5043644;28;20048;-72
2021/01/10 00:07:03;;;;;;;20.70;13.90;;;;;;;-1.77;67.04;95683.94;5045306;28;20124;-73
2021/01/10 00:09:28;;;;;;;24.90;14.82;;;;;;;-1.71;66.93;95683.06;5044816;28;20029;-72
2021/01/10 00:11:53;;;;;;;23.02;14.90;;;;;;;-1.71;67.46;95688.28;5047165;28;20623;-73
2021/01/10 00:14:18;;;;;;;26.27;13.82;;;;;;;-1.63;67.28;95693.25;5043730;28;20049;-72
2021/01/10 00:16:44;;;;;;;21.05;14.60;;;;;;;-1.70;66.57;95674.22;5043906;28;20121;-71
2021/01/10 00:19:10;;;;;;;19.75;13.27;;;;;;;-1.63;66.95;95675.00;5044999;28;20041;-73
2021/01/10 00:21:38;;;;;;;26.40;15.00;;;;;;;-1.71;67.21;95685.69;5044819;28;20048;-73
2021/01/10 00:24:05;;;;;;;24.45;14.95;;;;;;;-1.62;67.62;95692.22;5047104;28;20112;-72
2021/01/10 00:26:32;;;;;;;21.83;15.07;;;;;;;-1.61;68.04;95699.03;5036375;28;20068;-73
2021/01/10 00:28:58;;;;;;;24.63;16.08;;;;;;;-1.73;68.08;95687.72;5031496;28;20068;-73
2021/01/10 00:31:31;;;;;;;25.58;15.88;;;;;;;-1.71;67.76;95679.66;5031793;28;20376;-73
2021/01/10 00:33:57;;;;;;;26.63;15.50;;;;;;;-1.73;68.21;95668.66;5031685;28;20041;-73
2021/01/10 00:36:23;;;;;;;34.10;16.88;;;;;;;-1.62;68.99;95684.41;5031658;28;20117;-73
2021/01/10 00:38:49;;;;;;;32.15;19.20;;;;;;;-1.60;68.87;95684.97;5033182;28;20017;-75
2021/01/10 00:41:14;;;;;;;38.10;19.95;;;;;;;-1.62;69.02;95697.44;5031641;28;20496;-75
2021/01/10 00:43:39;;;;;;;41.05;21.65;;;;;;;-1.70;69.42;95687.28;5031615;28;20372;-74
2021/01/10 00:46:05;;;;;;;41.75;22.40;;;;;;;-1.69;69.76;95675.84;5029929;28;20126;-73
2021/01/10 00:48:30;;;;;;;49.20;24.08;;;;;;;-1.70;69.95;95689.88;5031144;28;20021;-72
2021/01/10 00:50:55;;;;;;;47.97;23.52;;;;;;;-1.98;71.32;95659.03;5033456;28;20025;-74
2021/01/10 00:53:20;;;;;;;54.33;26.52;;;;;;;-2.04;71.57;95669.50;5031108;28;20038;-74
2021/01/10 00:55:46;;;;;;;58.17;26.95;;;;;;;-1.98;71.62;95679.09;5031481;28;20071;-73
2021/01/10 00:58:11;;;;;;;60.50;28.15;;;;;;;-1.98;72.07;95681.69;5031377;28;20057;-78
2021/01/10 01:00:39;;;;;;;58.55;28.40;;;;;;;-2.02;72.16;95672.69;5030972;28;20090;-73
2021/01/10 01:03:04;;;;;;;66.90;29.08;;;;;;;-1.93;72.03;95687.06;5032654;28;20029;-72
2021/01/10 01:05:30;;;;;;;69.35;30.13;;;;;;;-2.05;71.74;95671.28;5029605;28;20545;-73
2021/01/10 01:07:55;;;;;;;66.53;28.88;;;;;;;-1.94;72.13;95688.09;5030934;28;20038;-73
2021/01/10 01:10:20;;;;;;;66.80;29.50;;;;;;;-2.05;71.96;95668.69;5030622;28;20079;-73
2021/01/10 01:12:45;;;;;;;66.00;27.90;;;;;;;-2.11;71.53;95675.53;5030503;28;20573;-72
2021/01/10 01:15:11;;;;;;;79.32;30.35;;;;;;;-2.16;72.29;95666.75;5032470;28;20034;-72
2021/01/10 01:17:37;;;;;;;73.80;29.95;;;;;;;-2.20;71.39;95671.63;5030841;28;20072;-73
2021/01/10 01:20:03;;;;;;;73.22;29.42;;;;;;;-2.11;71.67;95690.38;5030238;28;20049;-72
2021/01/10 01:22:29;;;;;;;73.60;30.02;;;;;;;-2.34;71.85;95664.09;5030549;28;20527;-72
2021/01/10 01:24:54;;;;;;;72.60;28.58;;;;;;;-2.31;71.93;95684.50;5030151;28;20052;-73
2021/01/10 01:27:20;;;;;;;73.65;29.88;;;;;;;-2.38;71.70;95676.72;5030648;28;20066;-72
2021/01/10 01:29:45;;;;;;;68.05;28.67;;;;;;;-2.32;72.21;95685.50;5032218;28;20034;-73
2021/01/10 01:32:10;;;;;;;74.38;29.40;;;;;;;-2.41;72.33;95674.53;5030079;28;20091;-72
2021/01/10 01:34:36;;;;;;;74.35;29.55;;;;;;;-2.36;72.83;95687.72;5030748;28;20121;-72
2021/01/10 01:37:03;;;;;;;73.10;29.50;;;;;;;-2.40;73.18;95689.19;5029790;28;20072;-72
2021/01/10 01:39:28;;;;;;;74.63;29.58;;;;;;;-2.42;72.73;95685.97;5029475;28;20038;-73
2021/01/10 01:41:53;;;;;;;79.00;30.27;;;;;;;-2.40;72.83;95697.78;5031907;28;20029;-72
2021/01/10 01:44:19;;;;;;;79.75;30.75;;;;;;;-2.48;72.53;95682.41;5030230;28;20041;-72
2021/01/10 01:46:44;;;;;;;75.72;29.92;;;;;;;-2.48;72.39;95687.59;5030164;28;20054;-72
2021/01/10 01:49:10;;;;;;;82.40;31.73;;;;;;;-2.62;73.83;95666.03;5029836;28;20045;-72
2021/01/10 01:51:37;;;;;;;89.45;32.08;;;;;;;-2.41;73.21;95705.78;5029865;28;20065;-71
2021/01/10 01:54:04;;;;;;;86.22;31.67;;;;;;;-2.56;73.08;95693.03;5031749;28;20025;-74
2021/01/10 01:56:29;;;;;;;90.93;33.03;;;;;;;-2.55;73.43;95694.66;5030101;28;20053;-74
2021/01/10 01:59:05;;;;;;;86.25;30.88;;;;;;;-2.47;73.70;95710.03;5029488;28;20045;-72
2021/01/10 02:01:32;;;;;;;95.45;33.03;;;;;;;-2.49;73.48;95706.84;5029749;28;20461;-71
2021/01/10 02:04:05;;;;;;;81.90;31.60;;;;;;;-2.61;73.30;95703.31;5028669;28;20610;-72
2021/01/10 02:06:40;;;;;;;86.57;29.92;;;;;;;-2.62;73.31;95705.09;5029870;28;20031;-72
2021/01/10 02:09:07;;;;;;;92.70;30.55;;;;;;;-2.68;73.06;95700.72;5031417;28;20026;-73
2021/01/10 02:11:36;;;;;;;94.75;33.00;;;;;;;-2.73;72.77;95700.53;5029557;28;20465;-73
2021/01/10 02:14:07;;;;;;;84.80;30.15;;;;;;;-2.71;72.23;95710.78;5029655;28;20062;-73
2021/01/10 02:16:35;;;;;;;90.63;31.20;;;;;;;-2.86;72.33;95700.59;5029746;28;20522;-73
2021/01/10 02:19:00;;;;;;;79.97;28.13;;;;;;;-2.83;72.88;95710.59;5029602;28;20040;-72
2021/01/10 02:21:27;;;;;;;82.93;29.85;;;;;;;-2.86;72.47;95707.63;5028275;28;20026;-71
2021/01/10 02:23:59;;;;;;;71.97;28.15;;;;;;;-2.99;72.77;95695.44;5031688;28;20446;-73
2021/01/10 02:26:25;;;;;;;71.07;27.02;;;;;;;-2.93;72.62;95705.81;5030039;28;20068;-72
2021/01/10 02:28:51;;;;;;;75.55;28.45;;;;;;;-3.00;72.59;95707.66;5029768;28;20041;-73
2021/01/10 02:31:17;;;;;;;75.07;28.42;;;;;;;-2.96;72.73;95719.25;5029310;28;20431;-72
2021/01/10 02:33:48;;;;;;;68.47;27.38;;;;;;;-2.99;72.30;95718.84;5029602;28;20428;-73
2021/01/10 02:36:31;;;;;;;65.07;26.58;;;;;;;-3.05;73.05;95709.28;5031476;28;20029;-73
2021/01/10 02:39:04;;;;;;;66.95;26.70;;;;;;;-3.04;72.95;95714.25;5029587;28;20045;-71
2021/01/10 02:41:42;;;;;;;74.65;27.05;;;;;;;-3.13;72.85;95705.88;5029134;28;20106;-73
2021/01/10 02:44:27;;;;;;;54.22;23.10;;;;;;;-3.19;73.24;95711.91;5029354;28;20038;-72
2021/01/10 02:46:54;;;;;;;58.33;23.92;;;;;;;-3.18;72.75;95718.69;5029238;28;20082;-72
2021/01/10 02:49:21;;;;;;;66.18;25.60;;;;;;;-3.20;72.44;95715.50;5028284;28;20045;-73
2021/01/10 02:51:49;;;;;;;58.80;24.60;;;;;;;-3.23;72.17;95710.69;5028861;28;20042;-73
2021/01/10 02:54:16;;;;;;;66.68;25.73;;;;;;;-3.35;72.73;95688.91;5028922;28;20395;-73
2021/01/10 02:57:00;;;;;;;68.53;27.63;;;;;;;-3.31;72.78;95690.13;5031026;28;20438;-73
2021/01/10 02:59:29;;;;;;;66.38;25.50;;;;;;;-3.30;72.42;95701.31;5028830;28;20026;-72
2021/01/10 03:01:59;;;;;;;54.05;23.33;;;;;;;-3.31;72.18;95710.94;5028188;28;20116;-72
2021/01/10 03:04:24;;;;;;;53.63;22.33;;;;;;;-3.40;71.96;95706.94;5027724;28;20048;-73
2021/01/10 03:06:54;;;;;;;63.80;24.50;;;;;;;-3.52;72.21;95685.16;5028556;28;20045;-73
2021/01/10 03:09:19;;;;;;;58.13;24.23;;;;;;;-3.42;72.43;95725.34;5027299;28;20623;-73
2021/01/10 03:11:45;;;;;;;61.55;23.42;;;;;;;-3.50;71.86;95719.56;5030613;28;20151;-73
2021/01/10 03:14:10;;;;;;;68.53;26.20;;;;;;;-3.63;72.30;95698.75;5028540;28;20081;-73
2021/01/10 03:16:36;;;;;;;71.88;25.77;;;;;;;-3.76;72.16;95681.38;5028875;28;20049;-72
2021/01/10 03:19:02;;;;;;;74.18;26.90;;;;;;;-3.63;72.45;95699.56;5027267;28;20118;-72
2021/01/10 03:21:28;;;;;;;67.13;25.90;;;;;;;-3.61;72.53;95697.56;5028517;28;20025;-72
2021/01/10 03:23:54;;;;;;;80.43;28.48;;;;;;;-3.54;72.80;95695.75;5030794;28;20029;-73
2021/01/10 03:26:20;;;;;;;80.13;28.70;;;;;;;-3.50;72.67;95701.34;5028602;28;20069;-71
2021/01/10 03:28:45;;;;;;;130.40;31.80;;;;;;;-3.47;72.14;95708.75;5026898;28;20080;-72
2021/01/10 03:31:10;;;;;;;120.35;32.25;;;;;;;-3.55;72.99;95701.16;5028587;28;20038;-72
2021/01/10 03:33:37;;;;;;;84.15;29.33;;;;;;;-3.63;73.13;95693.53;5028549;28;20033;-72
2021/01/10 03:36:03;;;;;;;94.47;29.38;;;;;;;-3.68;72.55;95697.56;5029138;28;20037;-73
2021/01/10 03:38:29;;;;;;;82.53;29.02;;;;;;;-3.76;72.92;95694.38;5028244;28;20160;-72
2021/01/10 03:40:54;;;;;;;82.75;29.15;;;;;;;-3.86;72.75;95684.38;5028202;28;20034;-73
2021/01/10 03:43:20;;;;;;;78.85;27.60;;;;;;;-3.96;72.65;95668.38;5028256;28;20045;-72
2021/01/10 03:45:45;;;;;;;78.25;27.27;;;;;;;-3.87;73.22;95697.56;5028825;28;20045;-71
2021/01/10 03:48:10;;;;;;;76.75;28.17;;;;;;;-3.84;72.49;95710.16;5030229;28;20029;-72
2021/01/10 03:50:36;;;;;;;70.13;25.83;;;;;;;-4.07;72.41;95666.38;5028332;28;20112;-73
2021/01/10 03:53:01;;;;;;;66.03;25.50;;;;;;;-4.04;72.58;95673.78;5028350;28;20030;-73
2021/01/10 03:55:26;;;;;;;73.00;26.95;;;;;;;-4.10;72.37;95682.34;5028721;28;20121;-72
2021/01/10 03:57:51;;;;;;;68.82;25.75;;;;;;;-3.98;72.73;95698.97;5028470;28;20038;-72
2021/01/10 04:00:18;;;;;;;71.28;25.48;;;;;;;-4.30;73.01;95651.16;5028337;28;20601;-72
2021/01/10 04:02:43;;;;;;;70.75;26.92;;;;;;;-4.09;73.04;95694.38;5033631;28;20029;-73
2021/01/10 04:05:09;;;;;;;76.03;27.02;;;;;;;-4.14;72.11;95691.56;5032080;28;20049;-72
2021/01/10 04:07:34;;;;;;;84.70;28.60;;;;;;;-4.40;73.84;95693.13;5030980;28;20044;-72
2021/01/10 04:09:59;;;;;;;70.82;26.88;;;;;;;-4.38;73.38;95677.34;5031829;28;20115;-72
2021/01/10 04:12:25;;;;;;;65.13;25.98;;;;;;;-4.38;73.57;95692.91;5031731;28;20140;-71
2021/01/10 04:14:55;;;;;;;61.15;23.80;;;;;;;-4.29;73.18;95705.53;5033714;28;21030;-72
2021/01/10 04:17:27;;;;;;;65.60;24.02;;;;;;;-4.32;73.10;95698.13;5031984;28;20045;-71
2021/01/10 04:19:53;;;;;;;74.38;26.55;;;;;;;-4.46;72.50;95699.06;5031633;28;20041;-75
2021/01/10 04:22:19;;;;;;;65.50;25.92;;;;;;;-4.42;72.52;95695.09;5031641;28;20041;-72
2021/01/10 04:24:45;;;;;;;76.38;27.52;;;;;;;-4.47;72.27;95689.69;5030442;28;20041;-71
2021/01/10 04:27:10;;;;;;;79.45;28.50;;;;;;;-4.77;73.29;95687.41;5033473;28;20072;-72
2021/01/10 04:29:35;;;;;;;79.85;28.23;;;;;;;-4.81;73.68;95688.81;5031500;28;20052;-71
2021/01/10 04:32:00;;;;;;;87.30;30.02;;;;;;;-4.87;74.23;95697.34;5031259;28;20053;-72
2021/01/10 04:34:26;;;;;;;75.68;28.23;;;;;;;-4.87;73.79;95662.81;5029997;28;20048;-71
2021/01/10 04:36:51;;;;;;;74.82;27.45;;;;;;;-4.76;73.86;95691.63;5031340;28;20038;-71
2021/01/10 04:39:16;;;;;;;80.05;28.88;;;;;;;-4.82;74.22;95682.00;5031125;28;20021;-72
2021/01/10 04:41:43;;;;;;;84.68;29.23;;;;;;;-4.87;74.20;95681.78;5033265;28;20075;-72
2021/01/10 04:44:08;;;;;;;80.40;28.08;;;;;;;-4.80;73.16;95687.03;5030148;28;20049;-71
2021/01/10 04:46:34;;;;;;;80.43;28.10;;;;;;;-5.31;76.04;95706.34;5031159;28;20029;-71
2021/01/10 04:49:00;;;;;;;87.57;29.17;;;;;;;-5.17;75.51;95703.78;5030855;28;20033;-72
2021/01/10 04:51:27;;;;;;;103.55;31.10;;;;;;;-5.00;74.80;95702.50;5029619;28;20021;-71
2021/01/10 04:53:56;;;;;;;82.68;28.02;;;;;;;-4.93;75.46;95692.94;5032951;28;20056;-73
2021/01/10 04:56:27;;;;;;;79.35;27.60;;;;;;;-4.86;75.04;95700.75;5031060;28;20045;-72
2021/01/10 04:58:54;;;;;;;80.57;26.60;;;;;;;-4.83;74.21;95701.16;5030596;28;20037;-71
2021/01/10 05:01:23;;;;;;;77.88;27.60;;;;;;;-4.90;74.25;95694.38;5030874;28;20455;-71
2021/01/10 05:03:48;;;;;;;82.85;29.35;;;;;;;-4.86;73.10;95700.75;5031063;28;20069;-71
2021/01/10 05:06:16;;;;;;;75.38;27.27;;;;;;;-5.01;73.62;95665.38;5033067;28;20110;-71
2021/01/10 05:08:41;;;;;;;81.93;28.40;;;;;;;-4.91;73.07;95701.34;5031224;28;20037;-72
2021/01/10 05:11:06;;;;;;;82.07;28.80;;;;;;;-4.99;73.83;95691.94;5030989;28;20491;-72
2021/01/10 05:13:32;;;;;;;83.28;28.38;;;;;;;-5.00;74.66;95682.53;5030260;28;20117;-71
2021/01/10 05:15:57;;;;;;;86.22;30.02;;;;;;;-5.05;74.03;95689.31;5030833;28;20042;-71
2021/01/10 05:18:24;;;;;;;77.00;28.02;;;;;;;-5.15;74.33;95713.00;5030485;28;20067;-71
2021/01/10 05:20:53;;;;;;;75.28;25.77;;;;;;;-5.14;74.74;95708.63;5032503;28;20027;-72
2021/01/10 05:23:23;;;;;;;73.93;26.05;;;;;;;-5.88;76.49;95709.16;5030218;28;20606;-71
2021/01/10 05:26:02;;;;;;;73.40;25.60;;;;;;;-5.53;75.92;95702.19;5030574;28;20048;-71
2021/01/10 05:28:29;;;;;;;71.78;25.85;;;;;;;-5.17;76.36;95702.00;5028844;28;20454;-71
2021/01/10 05:30:54;;;;;;;60.22;23.00;;;;;;;-5.71;75.43;95694.13;5030639;28;20117;-72
2021/01/10 05:33:19;;;;;;;118.65;26.27;;;;;;;-5.77;77.34;95706.84;5030332;28;20112;-71
2021/01/10 05:35:56;;;;;;;297.42;30.23;;;;;;;-5.66;78.18;95715.88;5032336;28;20028;-70
2021/01/10 05:38:33;;;;;;;126.05;26.02;;;;;;;-5.23;77.85;95703.56;5030345;28;20120;-71
2021/01/10 05:41:00;;;;;;;222.88;30.25;;;;;;;-5.34;77.53;95705.91;5030438;28;20088;-71
2021/01/10 05:43:26;;;;;;;209.65;30.13;;;;;;;-5.73;78.13;95719.41;5030446;28;20392;-73
2021/01/10 05:45:52;;;;;;;255.48;29.00;;;;;;;-6.22;79.70;95709.88;5030264;28;20084;-73
2021/01/10 05:48:18;;;;;;;229.43;30.40;;;;;;;-5.72;79.38;95713.25;5029922;28;20471;-72
2021/01/10 05:50:52;;;;;;;160.88;27.13;;;;;;;-5.29;79.31;95724.28;5032294;28;20032;-72
2021/01/10 05:53:20;;;;;;;77.80;24.75;;;;;;;-5.16;79.16;95702.84;5030024;28;20037;-74
2021/01/10 05:55:51;;;;;;;108.50;26.92;;;;;;;-4.65;78.62;95725.81;5030008;28;20069;-72
2021/01/10 05:58:16;;;;;;;147.13;25.58;;;;;;;-4.42;78.23;95709.88;5028290;28;20142;-73
2021/01/10 06:00:42;;;;;;;370.77;32.60;;;;;;;-4.41;76.79;95719.28;5029984;28;20622;-72
2021/01/10 06:03:09;;;;;;;290.52;26.77;;;;;;;-4.54;76.78;95723.44;5031661;28;20029;-72
2021/01/10 06:05:35;;;;;;;329.25;31.88;;;;;;;-4.64;77.03;95711.81;5029848;28;20076;-71
2021/01/10 06:08:00;;;;;;;274.08;27.67;;;;;;;-4.88;76.34;95711.31;5029710;28;20066;-72
2021/01/10 06:10:27;;;;;;;223.45;26.77;;;;;;;-4.64;76.56;95727.41;5029427;28;20038;-71
2021/01/10 06:13:04;;;;;;;100.72;23.20;;;;;;;-4.36;75.81;95722.88;5029907;28;20045;-71
2021/01/10 06:15:32;;;;;;;289.45;27.75;;;;;;;-4.82;75.38;95720.94;5029939;28;20094;-71
2021/01/10 06:18:01;;;;;;;248.18;27.92;;;;;;;-5.02;76.31;95722.63;5031819;28;20089;-71
2021/01/10 06:20:28;;;;;;;270.70;26.48;;;;;;;-5.53;77.71;95709.97;5029269;28;20058;-71
2021/01/10 06:22:56;;;;;;;227.60;25.17;;;;;;;-5.55;78.78;95717.94;5029234;28;20033;-71
2021/01/10 06:25:23;;;;;;;121.95;23.58;;;;;;;-4.78;77.60;95716.16;5028740;28;20396;-71
2021/01/10 06:28:02;;;;;;;87.68;23.40;;;;;;;-4.40;77.61;95724.28;5029347;28;20041;-70
2021/01/10 06:30:32;;;;;;;82.70;23.85;;;;;;;-4.13;77.23;95725.13;5027902;28;20049;-72
2021/01/10 06:33:31;;;;;;;137.55;25.15;;;;;;;-3.98;76.79;95719.75;5031204;28;20025;-71
2021/01/10 06:36:05;;;;;;;77.72;21.95;;;;;;;-3.93;75.72;95725.16;5029325;28;20045;-72
2021/01/10 06:38:33;;;;;;;79.32;23.67;;;;;;;-3.92;75.45;95721.56;5028848;28;20495;-71
2021/01/10 06:41:35;;;;;;;67.00;22.90;;;;;;;-3.80;74.47;95722.56;5029356;28;20084;-71
2021/01/10 06:44:05;;;;;;;46.97;20.70;;;;;;;-3.76;74.19;95728.97;5029228;28;20042;-70
2021/01/10 06:46:32;;;;;;;52.60;22.15;;;;;;;-3.63;74.58;95735.16;5029275;28;20124;-71
2021/01/10 06:49:00;;;;;;;77.95;24.63;;;;;;;-3.57;74.29;95740.38;5028632;28;20044;-70
2021/01/10 06:51:25;;;;;;;143.68;24.63;;;;;;;-4.53;73.34;95750.19;5029051;28;20030;-70
2021/01/10 06:53:51;;;;;;;116.85;25.88;;;;;;;-4.62;75.07;95736.59;5031032;28;20083;-71
2021/01/10 06:56:20;;;;;;;95.75;25.02;;;;;;;-4.36;74.84;95735.06;5029037;28;20046;-72
2021/01/10 06:59:08;;;;;;;60.03;24.42;;;;;;;-3.90;74.18;95745.53;5028661;28;20042;-73
2021/01/10 07:02:03;;;;;;;66.43;25.05;;;;;;;-3.61;74.25;95759.16;5028744;28;20050;-70
2021/01/10 07:04:34;;;;;;;52.88;23.02;;;;;;;-3.38;73.60;95759.53;5023108;28;20414;-71
2021/01/10 07:06:59;;;;;;;95.32;27.75;;;;;;;-3.28;73.39;95748.72;5028826;28;20053;-71
2021/01/10 07:09:25;;;;;;;77.68;25.60;;;;;;;-3.10;72.76;95758.53;5028580;28;20038;-72
2021/01/10 07:11:51;;;;;;;74.60;27.65;;;;;;;-3.17;71.86;95766.34;5031327;28;20029;-80
2021/01/10 07:14:16;;;;;;;66.40;25.17;;;;;;;-2.92;71.93;95763.88;5030722;28;20395;-79
2021/01/10 07:16:45;;;;;;;72.22;26.58;;;;;;;-2.91;71.77;95740.25;5029743;28;20033;-80
2021/01/10 07:19:12;;;;;;;62.15;25.35;;;;;;;-2.63;71.00;95768.59;5030643;28;20061;-81
2021/01/10 07:21:48;;;;;;;67.45;24.38;;;;;;;-2.52;70.63;95763.75;5029434;28;20048;-80
2021/01/10 07:24:14;;;;;;;54.97;23.15;;;;;;;-2.34;70.14;95763.09;5031421;28;20033;-79
2021/01/10 07:26:47;;;;;;;62.17;25.35;;;;;;;-2.26;69.70;95758.44;5030579;28;20228;-82
2021/01/10 07:29:42;;;;;;;61.35;23.23;;;;;;;-2.13;69.59;95754.97;5030229;28;20030;-79
2021/01/10 07:32:19;;;;;;;52.67;22.48;;;;;;;-2.04;69.19;95758.13;5030362;28;20570;-80
2021/01/10 07:34:44;;;;;;;56.40;24.40;;;;;;;-1.98;68.57;95754.69;5030634;28;20038;-80
2021/01/10 07:37:16;;;;;;;68.78;24.38;;;;;;;-2.08;68.37;95738.72;5032398;28;20051;-80
2021/01/10 07:39:55;;;;;;;55.47;23.13;;;;;;;-1.97;68.59;95753.66;5033432;28;20044;-80
2021/01/10 07:42:23;;;;;;;52.78;21.65;;;;;;;-1.90;67.35;95747.41;5034458;28;20449;-79
2021/01/10 07:44:49;;;;;;;57.25;21.85;;;;;;;-1.73;67.46;95758.13;5036498;28;20092;-81
2021/01/10 07:47:35;;;;;;;59.10;20.70;;;;;;;-1.66;68.19;95739.81;5034435;28;20049;-81
2021/01/10 07:50:12;;;;;;;66.72;21.50;;;;;;;-1.43;68.60;95750.47;5034013;28;20038;-80
2021/01/10 07:52:41;;;;;;;70.93;22.38;;;;;;;-1.24;67.17;95758.34;5034185;28;20042;-80
2021/01/10 07:55:27;;;;;;;52.15;21.50;;;;;;;-1.08;67.02;95744.72;5034146;28;20069;-80
2021/01/10 07:57:59;;;;;;;51.70;21.67;;;;;;;-1.06;67.08;95745.34;5033317;28;20068;-73
2021/01/10 08:00:47;;;;;;;72.05;24.15;;;;;;;-1.06;66.20;95761.78;5032498;28;20026;-73
2021/01/10 08:03:26;;;;;;;62.88;23.05;;;;;;;-0.99;65.93;95746.06;5034506;28;20029;-77
2021/01/10 08:05:59;;;;;;;57.13;22.50;;;;;;;-0.74;66.06;95766.91;5033002;28;20038;-74
2021/01/10 08:08:42;;;;;;;61.22;24.70;;;;;;;-0.67;65.12;95761.59;5032739;28;20060;-72
2021/01/10 08:11:08;;;;;;;121.05;25.85;;;;;;;-0.73;65.11;95762.47;5032871;28;20527;-72
2021/01/10 08:13:34;;;;;;;87.93;25.17;;;;;;;-0.75;64.45;95782.78;5032111;28;20041;-72
2021/01/10 08:16:03;;;;;;;86.18;26.85;;;;;;;-0.83;65.17;95778.63;5033119;28;20045;-72
2021/01/10 08:18:36;;;;;;;59.58;24.42;;;;;;;-0.84;65.54;95785.69;5031793;28;20479;-72
2021/01/10 08:21:18;;;;;;;91.75;26.88;;;;;;;-0.77;65.00;95777.75;5034474;28;20121;-71
2021/01/10 08:23:46;;;;;;;71.28;24.67;;;;;;;-1.21;65.60;95769.16;5031924;28;20056;-72
2021/01/10 08:26:13;;;;;;;57.05;23.38;;;;;;;-0.73;65.55;95778.94;5032647;28;20037;-72
2021/01/10 08:28:47;;;;;;;100.72;26.48;;;;;;;-0.44;65.35;95784.47;5031929;28;20041;-72
2021/01/10 08:31:16;;;;;;;79.15;26.45;;;;;;;-0.46;64.54;95781.25;5032388;28;20045;-71
2021/01/10 08:33:42;;;;;;;57.22;24.35;;;;;;;-0.28;65.19;95770.78;5032648;28;20044;-72
2021/01/10 08:36:11;;;;;;;54.05;23.42;;;;;;;-0.10;63.91;95778.63;5034409;28;20052;-72
2021/01/10 08:38:44;;;;;;;52.20;24.27;;;;;;;0.13;63.69;95766.66;5032261;28;20064;-71
2021/01/10 08:41:10;;;;;;;57.88;25.60;;;;;;;0.31;63.48;95766.59;5033298;28;20475;-82
2021/01/10 08:43:49;;;;;;;49.90;24.35;;;;;;;0.50;62.87;95777.78;5033407;28;20061;-80
2021/01/10 08:46:14;;;;;;;52.85;24.42;;;;;;;0.60;62.35;95777.22;5033411;28;20033;-80
2021/01/10 08:48:42;;;;;;;51.17;25.05;;;;;;;0.78;62.18;95769.28;5031665;28;20099;-76
2021/01/10 08:51:07;;;;;;;52.58;25.50;;;;;;;0.98;61.04;95776.81;5034935;28;20052;-80
2021/01/10 08:53:42;;;;;;;52.45;25.83;;;;;;;0.93;61.54;95774.88;5033025;28;20503;-72
2021/01/10 08:56:15;;;;;;;50.33;24.80;;;;;;;0.99;61.04;95773.16;5032270;28;20038;-69
2021/01/10 08:58:43;;;;;;;47.05;24.27;;;;;;;1.00;61.33;95766.91;5030116;28;20528;-73
2021/01/10 09:01:18;;;;;;;47.08;23.48;;;;;;;1.00;60.95;95772.94;5032043;28;20052;-70
2021/01/10 09:04:10;;;;;;;46.95;24.77;;;;;;;0.94;60.99;95771.22;5032094;28;20049;-69
2021/01/10 09:06:57;;;;;;;47.63;24.98;;;;;;;0.76;61.36;95766.88;5030636;28;20041;-73
2021/01/10 09:09:32;;;;;;;45.72;24.02;;;;;;;0.68;61.96;95776.91;5037533;28;20079;-68
2021/01/10 09:12:21;;;;;;;51.35;25.98;;;;;;;0.65;62.04;95779.97;5038948;28;20502;-70
2021/01/10 09:14:53;;;;;;;53.42;25.95;;;;;;;0.47;62.06;95776.41;5032144;28;20050;-70
2021/01/10 09:17:26;;;;;;;46.95;24.98;;;;;;;0.37;62.60;95770.94;5031972;28;20458;-70
2021/01/10 09:19:58;;;;;;;55.50;25.80;;;;;;;0.50;62.90;95778.56;5031835;28;20038;-73
2021/01/10 09:22:29;;;;;;;48.60;25.90;;;;;;;0.45;62.76;95767.19;5031710;28;20076;-71
2021/01/10 09:24:54;;;;;;;49.22;25.08;;;;;;;0.83;62.83;95768.63;5031699;28;20038;-68
2021/01/10 09:27:20;;;;;;;47.22;25.23;;;;;;;1.24;62.17;95775.56;5031463;28;20383;-69
2021/01/10 09:29:45;;;;;;;49.85;25.10;;;;;;;1.61;61.46;95776.06;5033261;28;20078;-73
2021/01/10 09:32:19;;;;;;;45.53;24.42;;;;;;;2.10;60.77;95784.38;5031248;28;20037;-68
2021/01/10 09:34:53;;;;;;;50.42;25.95;;;;;;;2.37;59.95;95789.84;5030067;28;20129;-74
2021/01/10 09:37:18;;;;;;;50.47;25.27;;;;;;;2.48;58.72;95772.41;5031565;28;20033;-74
2021/01/10 09:39:44;;;;;;;53.90;28.13;;;;;;;2.69;58.62;95784.06;5031319;28;20128;-73
2021/01/10 09:42:11;;;;;;;45.35;24.95;;;;;;;2.73;58.79;95779.94;5033235;28;20068;-72
2021/01/10 09:44:37;;;;;;;51.40;26.58;;;;;;;2.80;57.32;95789.22;5031505;28;20033;-70
2021/01/10 09:47:03;;;;;;;51.40;26.27;;;;;;;2.88;55.99;95776.75;5031195;28;20102;-74
2021/01/10 09:49:32;;;;;;;45.40;25.90;;;;;;;3.03;56.34;95775.16;5031248;28;20441;-69
2021/01/10 09:52:10;;;;;;;47.50;26.33;;;;;;;3.04;56.37;95754.91;5031151;28;20034;-71
2021/01/10 09:54:36;;;;;;;44.88;24.17;;;;;;;3.21;55.86;95770.66;5030991;28;20041;-75
2021/01/10 09:57:22;;;;;;;55.20;28.55;;;;;;;2.77;56.58;95773.97;5032998;28;20056;-69
2021/01/10 09:59:53;;;;;;;56.22;29.55;;;;;;;2.44;57.15;95761.59;5029476;28;20089;-72
2021/01/10 10:02:36;;;;;;;52.43;27.77;;;;;;;2.11;57.69;95770.22;5031104;28;20037;-71
2021/01/10 10:05:16;;;;;;;58.65;28.63;;;;;;;1.85;58.59;95758.44;5031020;28;20634;-71
2021/01/10 10:07:50;;;;;;;51.30;26.90;;;;;;;2.03;58.97;95766.13;5027817;28;20025;-70
2021/01/10 10:10:26;;;;;;;49.88;25.80;;;;;;;2.23;58.93;95764.91;5029312;28;20483;-71
2021/01/10 10:12:56;;;;;;;52.60;27.10;;;;;;;2.44;58.07;95766.84;5030959;28;20045;-72
2021/01/10 10:15:33;;;;;;;50.72;26.42;;;;;;;2.49;57.80;95748.53;5030506;28;20427;-70
2021/01/10 10:18:00;;;;;;;52.30;27.70;;;;;;;2.78;57.13;95764.25;5032583;28;20483;-73
2021/01/10 10:20:25;;;;;;;53.20;26.40;;;;;;;2.88;55.93;95751.25;5029282;28;20045;-70
2021/01/10 10:22:50;;;;;;;48.47;26.27;;;;;;;3.08;55.75;95738.41;5030371;28;20026;-72
2021/01/10 10:25:16;;;;;;;49.40;26.52;;;;;;;3.38;55.15;95737.25;5029784;28;20095;-70
2021/01/10 10:27:56;;;;;;;47.47;25.33;;;;;;;3.29;54.14;95747.38;5029937;28;20135;-72
2021/01/10 10:30:23;;;;;;;47.50;25.92;;;;;;;3.16;53.89;95746.91;5030185;28;20022;-71
2021/01/10 10:32:48;;;;;;;51.05;28.02;;;;;;;3.08;53.92;95748.94;5031007;28;20049;-74
2021/01/10 10:35:13;;;;;;;43.63;24.70;;;;;;;2.73;54.77;95749.19;5030346;28;20081;-72
2021/01/10 10:37:39;;;;;;;49.90;27.33;;;;;;;2.53;54.73;95747.03;5030433;28;20037;-72
2021/01/10 10:40:05;;;;;;;47.05;26.02;;;;;;;2.44;55.12;95731.91;5030139;28;20117;-71
2021/01/10 10:42:30;;;;;;;51.15;27.83;;;;;;;2.31;55.90;95733.03;5030230;28;20494;-70
2021/01/10 10:44:55;;;;;;;55.13;28.55;;;;;;;2.23;56.13;95734.19;5032413;28;20049;-70
2021/01/10 10:47:20;;;;;;;46.63;26.58;;;;;;;2.05;56.16;95729.97;5030218;28;20033;-71
2021/01/10 10:49:46;;;;;;;50.13;27.17;;;;;;;1.54;56.72;95718.53;5029962;28;20458;-70
2021/01/10 10:52:14;;;;;;;49.30;25.90;;;;;;;1.58;57.33;95726.69;5030166;28;20513;-77
2021/01/10 10:54:40;;;;;;;48.63;26.92;;;;;;;1.34;58.16;95712.88;5030259;28;20026;-69
2021/01/10 10:57:07;;;;;;;46.92;25.67;;;;;;;1.43;58.38;95729.81;5031885;28;20022;-71
2021/01/10 10:59:32;;;;;;;47.72;25.38;;;;;;;1.35;58.18;95717.06;5029869;28;20041;-77
2021/01/10 11:01:57;;;;;;;41.90;24.02;;;;;;;0.97;58.76;95694.00;5030352;28;20395;-80
2021/01/10 11:04:23;;;;;;;48.50;26.25;;;;;;;1.05;59.10;95717.22;5030190;28;20041;-70
2021/01/10 11:06:48;;;;;;;46.85;26.08;;;;;;;1.04;59.81;95713.03;5028796;28;20128;-66
2021/01/10 11:09:13;;;;;;;51.45;27.75;;;;;;;0.69;59.53;95658.84;5030661;28;20060;-76
2021/01/10 11:11:45;;;;;;;47.40;26.50;;;;;;;0.60;60.09;95709.94;5028633;28;20040;-75
2021/01/10 11:14:15;;;;;;;38.97;21.33;;;;;;;0.86;60.43;95700.84;5029983;28;20046;-74
2021/01/10 11:16:46;;;;;;;47.42;25.33;;;;;;;0.88;60.35;95701.44;5030023;28;20052;-77
2021/01/10 11:19:13;;;;;;;43.60;25.00;;;;;;;0.61;60.26;95676.72;5029940;28;20049;-74
2021/01/10 11:21:46;;;;;;;45.97;24.15;;;;;;;0.64;60.83;95692.78;5029584;28;20129;-72
2021/01/10 11:24:12;;;;;;;46.00;25.25;;;;;;;0.66;60.96;95689.91;5031449;28;20026;-72
2021/01/10 11:26:39;;;;;;;42.40;23.77;;;;;;;0.55;61.20;95685.47;5029854;28;20042;-72
2021/01/10 11:29:05;;;;;;;47.28;25.95;;;;;;;0.65;60.99;95686.50;5029120;28;20096;-72